Luck, WI (54853)

11:48 AM CDT on August 27, 2014 (GMT -0500)
Big Butternut Lake | Change Station
CLOSE
Current Station
Personal Weather Station
Location: Luck, WI
Elevation: 1198 ft
Nearby Weather Stations

Elev 1198 ft 45.57 °N, 92.45 °W | Updated 10 seconds ago

Clear
Clear
67.6 °F
Feels Like 67.6 °F
N
0.0
Wind Variable Wind from East
Gusts 5.0 mph

Today
High -- | Low -- °F
--% Chance of Precip.
Yesterday
High -- | Low -- °F
Precip. -- in
6:25 AM 7:56 PM
Waxing Crescent, 4% visible
Pressure 30.24 in
Visibility 10.0 miles
Clouds Mostly Cloudy 3000 ft
Dew Point 53 °F
Humidity 59%
Rainfall 0.02 in
Snow Depth Not available.
UV 5.6 out of 12
Pollen 8.00 out of 12
Ozone Good
PM2.5 Good
Flu Activity Not available.
METAR KRZN 271630Z AUTO 01004KT 10SM BKN030 19/11 A3024 RMK AO2 T01870105

More Conditions Fewer Conditions

Pressure 30.24 in
Visibility 10.0 miles
Clouds Mostly Cloudy 3000 ft
Dew Point 53 °F
Humidity 59%
Rainfall 0.02 in
Snow Depth Not available.
UV 5.6 out of 12
Pollen 8.00 out of 12
Ozone Good
PM2.5 Good
Flu Activity Not available.
METAR KRZN 271630Z AUTO 01004KT 10SM BKN030 19/11 A3024 RMK AO2 T01870105

More Conditions Fewer Conditions

10-Day Weather Forecast

Almanac

Astronomy

Aug. 27, 2014 Rise Set
Actual Time 6:25 AM CDT 7:56 PM CDT
Civil Twilight 5:54 AM CDT 8:27 PM CDT
Nautical Twilight 5:16 AM CDT 9:05 PM CDT
Astronomical Twilight 4:35 AM CDT 9:45 PM CDT
Moon 8:29 AM CDT 8:39 PM CDT
Length of Visible Light 14h 33m
Length of Day
13h 31m
Tomorrow will be 3m 3s shorter.
Waxing Crescent, 4% of the Moon is Illuminated
Today
Waxing Crescent
Sep 2
First Quarter
Sep 8
Full
Sep 15
Last Quarter
Sep 24
New

Today's Extremes

State Highs State Lows

Community

WunderPhotos

Upload Photos

1,747,727 photos uploaded!

Nearby

Air Quality

  Air Quality AQ Index Pollutant
Yesterday Good
OZONE
Yesterday Good
PM2.5
Current Good
OZONE
Current Good
PM2.5
Wednesday Good
OZONE
Wednesday Good
PM2.5
Thursday Good
OZONE
Thursday Good
PM2.5
Friday Good
OZONE
Friday Good
PM2.5
Saturday Moderate
OZONE
Saturday Good
PM2.5
Sunday Moderate
OZONE
Sunday Moderate
PM2.5

Snow Depth

Station Depth Elevation
No new snow has been reported.

Earthquake Activity

City Distance Mag. Time & Date
No recent earthquake activity has been reported nearby.
Minimum magnitude displayed is 2.5.

Coastal Water Temperatures

Place Temperature
No Stations Reporting

Nearby Weather Stations